Time;durP1;ratioP1;P1;durP2;ratioP2;P2;SDS_P1;SDS_P2;PMS_P1;PMS_P2;Temp;Humidity;BMP_temperature;BMP_pressure;BME280_temperature;BME280_humidity;BME280_pressure;Samples;Min_cycle;Max_cycle;Signal;HPM_P1;HPM_P2
2021/12/13 00:00:29;;;;;;;;;;;51.30;2227.20;;;;;;4771492;30;19963;-57
2021/12/13 00:03:08;;;;;;;;;;;51.30;2227.20;;;;;;4773686;30;19910;-58
2021/12/13 00:05:43;;;;;;;;;;;51.30;2227.20;;;;;;4773542;30;19917;-57
2021/12/13 00:08:17;;;;;;;;;;;51.30;2227.20;;;;;;4773914;30;19964;-57
2021/12/13 00:10:43;;;;;;;;;;;51.30;2227.20;;;;;;4757349;30;19914;-57
2021/12/13 00:13:15;;;;;;;;;;;51.30;2227.20;;;;;;4755382;30;20009;-57
2021/12/13 00:16:01;;;;;;;;;;;51.30;2227.20;;;;;;4762418;30;19913;-57
2021/12/13 00:18:30;;;;;;;;;;;51.30;2227.20;;;;;;4763225;30;19918;-57
2021/12/13 00:21:08;;;;;;;;;;;51.30;2227.20;;;;;;4765422;30;19914;-57
2021/12/13 00:23:54;;;;;;;;;;;51.30;2227.20;;;;;;4773410;30;19917;-57
2021/12/13 00:26:26;;;;;;;;;;;51.30;2227.20;;;;;;4770407;30;20283;-57
2021/12/13 00:28:51;;;;;;;;;;;51.30;2227.20;;;;;;4772749;30;19922;-57
2021/12/13 00:31:25;;;;;;;;;;;51.30;2227.20;;;;;;4772946;30;20000;-57
2021/12/13 00:33:54;;;;;;;;;;;51.30;2227.20;;;;;;4773180;30;19917;-57
2021/12/13 00:36:29;;;;;;;;;;;51.30;2227.20;;;;;;4772822;30;19910;-57
2021/12/13 00:38:59;;;;;;;;;;;51.20;2227.20;;;;;;4773048;30;20020;-57
2021/12/13 00:41:29;;;;;;;;;;;51.30;2227.20;;;;;;4772789;30;19964;-57
2021/12/13 00:44:05;;;;;;;;;;;51.30;2227.20;;;;;;4772110;30;19936;-57
2021/12/13 00:46:32;;;;;;;;;;;51.30;2227.20;;;;;;4762774;30;19922;-57
2021/12/13 00:48:59;;;;;;;;;;;51.30;2227.20;;;;;;4755196;30;19952;-55
2021/12/13 00:51:29;;;;;;;;;;;51.30;2227.20;;;;;;4761716;30;20425;-55
2021/12/13 00:53:56;;;;;;;;;;;51.30;2227.20;;;;;;4764028;30;19965;-56
2021/12/13 00:56:41;;;;;;;;;;;51.30;2227.20;;;;;;4762394;30;19910;-55
2021/12/13 00:59:07;;;;;;;;;;;51.30;2227.20;;;;;;4763080;30;20261;-55
2021/12/13 01:01:33;;;;;;;;;;;51.30;2227.20;;;;;;4762548;30;19918;-55
2021/12/13 01:03:59;;;;;;;;;;;51.30;2227.20;;;;;;4763894;30;19975;-57
2021/12/13 01:06:36;;;;;;;;;;;51.30;2227.20;;;;;;4762609;30;20372;-57
2021/12/13 01:09:20;;;;;;;;;;;51.30;2227.20;;;;;;4762179;30;19917;-56
2021/12/13 01:11:54;;;;;;;;;;;51.30;2227.20;;;;;;4762639;30;19954;-58
2021/12/13 01:14:32;;;;;;;;;;;51.40;2227.20;;;;;;4761890;30;19910;-55
2021/12/13 01:17:12;;;;;;;;;;;51.40;2227.20;;;;;;4761948;30;19910;-57
2021/12/13 01:22:40;;;;;;;;;;;51.50;2227.20;;;;;;4762187;30;20004;-58
2021/12/13 01:25:21;;;;;;;;;;;51.50;2227.20;;;;;;4762352;30;19910;-58
2021/12/13 01:27:53;;;;;;;;;;;51.50;2227.20;;;;;;4762558;30;20356;-56
2021/12/13 01:30:22;;;;;;;;;;;51.40;2227.20;;;;;;4761558;30;19922;-56
2021/12/13 01:32:50;;;;;;;;;;;51.40;2227.20;;;;;;4762986;30;20334;-55
2021/12/13 01:35:21;;;;;;;;;;;51.50;2227.20;;;;;;4763402;30;20254;-58
2021/12/13 01:37:51;;;;;;;;;;;51.50;2227.20;;;;;;4762522;30;20253;-56
2021/12/13 01:40:18;;;;;;;;;;;51.50;2227.20;;;;;;4761432;30;20299;-57
2021/12/13 01:42:44;;;;;;;;;;;51.50;2227.20;;;;;;4763036;30;20463;-58
2021/12/13 01:45:13;;;;;;;;;;;51.50;2227.20;;;;;;4746479;30;20001;-56
2021/12/13 01:47:41;;;;;;;;;;;51.50;2227.20;;;;;;4754434;30;19968;-56
2021/12/13 01:50:10;;;;;;;;;;;51.50;2227.20;;;;;;4753790;30;20352;-56
2021/12/13 01:52:37;;;;;;;;;;;51.50;2227.20;;;;;;4753866;30;19917;-56
2021/12/13 01:55:12;;;;;;;;;;;51.50;2227.20;;;;;;4753787;30;20380;-56
2021/12/13 01:57:49;;;;;;;;;;;51.50;2227.20;;;;;;4753772;30;20364;-56
2021/12/13 02:00:21;;;;;;;;;;;51.50;2227.20;;;;;;4753740;30;19922;-55
2021/12/13 02:02:52;;;;;;;;;;;51.50;2227.20;;;;;;4753902;30;19914;-55
2021/12/13 02:05:28;;;;;;;;;;;51.50;2227.20;;;;;;4753650;30;19954;-55
2021/12/13 02:08:00;;;;;;;;;;;51.50;2227.20;;;;;;4752959;30;20000;-56
2021/12/13 02:10:29;;;;;;;;;;;51.50;2227.20;;;;;;4754080;30;19910;-56
2021/12/13 02:13:02;;;;;;;;;;;51.50;2227.20;;;;;;4737609;30;19917;-55
2021/12/13 02:18:15;;;;;;;;;;;51.50;2227.20;;;;;;4753664;30;20300;-58
2021/12/13 02:20:45;;;;;;;;;;;51.50;2227.20;;;;;;4753380;30;19911;-55
2021/12/13 02:23:11;;;;;;;;;;;51.50;2227.20;;;;;;4753363;30;19910;-55
2021/12/13 02:25:39;;;;;;;;;;;51.50;2227.20;;;;;;4753346;30;19959;-56
2021/12/13 02:28:10;;;;;;;;;;;51.60;2227.20;;;;;;4753366;30;19910;-56
2021/12/13 02:30:38;;;;;;;;;;;51.60;2227.20;;;;;;4753623;30;20356;-56
2021/12/13 02:33:06;;;;;;;;;;;51.60;2227.20;;;;;;4753518;30;19921;-55
2021/12/13 02:35:33;;;;;;;;;;;51.60;2227.20;;;;;;4753189;30;20409;-55
2021/12/13 02:38:00;;;;;;;;;;;51.60;2227.20;;;;;;4753200;30;19997;-55
2021/12/13 02:40:26;;;;;;;;;;;51.60;2227.20;;;;;;4753235;30;20486;-56
2021/12/13 02:42:52;;;;;;;;;;;51.60;2227.20;;;;;;4753155;30;19910;-55
2021/12/13 02:45:22;;;;;;;;;;;51.50;2227.20;;;;;;4753397;30;19910;-56
2021/12/13 02:47:52;;;;;;;;;;;51.60;2227.20;;;;;;4753391;30;20011;-56
2021/12/13 02:50:44;;;;;;;;;;;51.60;2227.20;;;;;;4753254;30;19917;-56
2021/12/13 02:53:11;;;;;;;;;;;51.60;2227.20;;;;;;4716166;30;19910;-55
2021/12/13 02:55:37;;;;;;;;;;;51.60;2227.20;;;;;;4716097;30;19911;-56
2021/12/13 02:58:06;;;;;;;;;;;51.60;2227.20;;;;;;4716087;30;19911;-56
2021/12/13 03:00:43;;;;;;;;;;;51.60;2227.20;;;;;;4716051;30;19919;-56
2021/12/13 03:03:10;;;;;;;;;;;51.60;2227.20;;;;;;4716050;30;19994;-55
2021/12/13 03:05:38;;;;;;;;;;;51.60;2227.20;;;;;;4715969;30;20005;-56
2021/12/13 03:08:19;;;;;;;;;;;51.60;2227.20;;;;;;4715958;30;19915;-55
2021/12/13 03:10:49;;;;;;;;;;;51.70;2227.20;;;;;;4716049;30;19946;-56
2021/12/13 03:13:18;;;;;;;;;;;51.60;2227.20;;;;;;4715842;30;20323;-56
2021/12/13 03:15:50;;;;;;;;;;;51.70;2227.20;;;;;;4715792;30;20328;-55
2021/12/13 03:18:21;;;;;;;;;;;51.70;2227.20;;;;;;4717214;30;20404;-56
2021/12/13 03:20:50;;;;;;;;;;;51.60;2227.20;;;;;;4719902;30;19911;-56
2021/12/13 03:23:18;;;;;;;;;;;51.70;2227.20;;;;;;4719215;30;19911;-56
2021/12/13 03:25:49;;;;;;;;;;;51.60;2227.20;;;;;;4719251;30;19994;-56
2021/12/13 03:28:34;;;;;;;;;;;51.60;2227.20;;;;;;4718963;30;19922;-56
2021/12/13 03:31:00;;;;;;;;;;;51.60;2227.20;;;;;;4754471;30;20001;-56
2021/12/13 03:33:34;;;;;;;;;;;51.60;2227.20;;;;;;4756052;30;19953;-56
2021/12/13 03:36:04;;;;;;;;;;;51.60;2227.20;;;;;;4756389;30;19910;-56
2021/12/13 03:38:35;;;;;;;;;;;51.60;2227.20;;;;;;4756254;30;20016;-56
2021/12/13 03:41:03;;;;;;;;;;;51.50;2227.20;;;;;;4756385;30;20245;-56
2021/12/13 03:43:31;;;;;;;;;;;51.50;2227.20;;;;;;4755939;30;19968;-56
2021/12/13 03:46:01;;;;;;;;;;;51.60;2227.20;;;;;;4756028;30;19955;-56
2021/12/13 03:48:28;;;;;;;;;;;51.50;2227.20;;;;;;4755897;30;19910;-56
2021/12/13 03:50:56;;;;;;;;;;;51.50;2227.20;;;;;;4756186;30;19910;-58
2021/12/13 03:53:24;;;;;;;;;;;51.50;2227.20;;;;;;4739955;30;19917;-58
2021/12/13 03:55:52;;;;;;;;;;;51.60;2227.20;;;;;;4756019;30;20360;-56
2021/12/13 03:58:20;;;;;;;;;;;51.60;2227.20;;;;;;4755752;30;19914;-56
2021/12/13 04:00:52;;;;;;;;;;;51.60;2227.20;;;;;;4755983;30;20261;-56
2021/12/13 04:03:18;;;;;;;;;;;51.60;2227.20;;;;;;4755626;30;19917;-56
2021/12/13 04:05:45;;;;;;;;;;;51.60;2227.20;;;;;;4755906;30;19910;-56
2021/12/13 04:08:11;;;;;;;;;;;51.60;2227.20;;;;;;4755606;30;19949;-55
2021/12/13 04:10:39;;;;;;;;;;;51.60;2227.20;;;;;;4755467;30;19950;-56
2021/12/13 04:13:11;;;;;;;;;;;51.60;2227.20;;;;;;4755823;30;20353;-56
2021/12/13 04:16:14;;;;;;;;;;;51.60;2227.20;;;;;;4755491;30;20051;-56
2021/12/13 04:19:19;;;;;;;;;;;51.60;2227.20;;;;;;4755015;30;19922;-57
2021/12/13 04:21:46;;;;;;;;;;;51.60;2227.20;;;;;;4753426;30;20290;-56
2021/12/13 04:24:34;;;;;;;;;;;51.60;2227.20;;;;;;4748741;30;19910;-56
2021/12/13 04:27:02;;;;;;;;;;;51.60;2227.20;;;;;;4755228;30;19960;-56
2021/12/13 04:29:30;;;;;;;;;;;51.60;2227.20;;;;;;4754381;30;19922;-58
2021/12/13 04:31:57;;;;;;;;;;;51.60;2227.20;;;;;;4755242;30;20364;-56
2021/12/13 04:34:24;;;;;;;;;;;51.60;2227.20;;;;;;4755417;30;20378;-56
2021/12/13 04:36:51;;;;;;;;;;;51.60;2227.20;;;;;;4755429;30;20281;-56
2021/12/13 04:39:34;;;;;;;;;;;51.60;2227.20;;;;;;4755027;30;19922;-56
2021/12/13 04:42:01;;;;;;;;;;;51.60;2227.20;;;;;;4755621;30;19910;-56
2021/12/13 04:44:30;;;;;;;;;;;51.60;2227.20;;;;;;4755176;30;20012;-56
2021/12/13 04:46:56;;;;;;;;;;;51.60;2227.20;;;;;;4754918;30;19964;-56
2021/12/13 04:49:23;;;;;;;;;;;51.60;2227.20;;;;;;4755142;30;20265;-57
2021/12/13 04:51:54;;;;;;;;;;;51.60;2227.20;;;;;;4754909;30;19910;-58
2021/12/13 04:54:21;;;;;;;;;;;51.60;2227.20;;;;;;4754920;30;20361;-56
2021/12/13 04:56:47;;;;;;;;;;;51.60;2227.20;;;;;;4755047;30;19910;-56
2021/12/13 04:59:14;;;;;;;;;;;51.60;2227.20;;;;;;4754650;30;20300;-56
2021/12/13 05:01:40;;;;;;;;;;;51.60;2227.20;;;;;;4754978;30;19910;-56
2021/12/13 05:04:06;;;;;;;;;;;51.60;2227.20;;;;;;4754709;30;20273;-56
2021/12/13 05:06:39;;;;;;;;;;;51.60;2227.20;;;;;;4754898;30;20268;-56
2021/12/13 05:09:07;;;;;;;;;;;51.50;2227.20;;;;;;4754562;30;19921;-56
2021/12/13 05:11:35;;;;;;;;;;;51.50;2227.20;;;;;;4754590;30;20328;-56
2021/12/13 05:14:01;;;;;;;;;;;51.50;2227.20;;;;;;4754477;30;19910;-56
2021/12/13 05:16:30;;;;;;;;;;;51.60;2227.20;;;;;;4754468;30;19911;-56
2021/12/13 05:18:56;;;;;;;;;;;51.60;2227.20;;;;;;4754288;30;19915;-56
2021/12/13 05:21:27;;;;;;;;;;;51.60;2227.20;;;;;;4754356;30;20284;-58
2021/12/13 05:23:58;;;;;;;;;;;51.60;2227.20;;;;;;4754369;30;19910;-56
2021/12/13 05:26:29;;;;;;;;;;;51.50;2227.20;;;;;;4754493;30;19970;-58
2021/12/13 05:28:57;;;;;;;;;;;51.60;2227.20;;;;;;4754051;30;19922;-56
2021/12/13 05:31:24;;;;;;;;;;;51.60;2227.20;;;;;;4754229;30;20265;-57
2021/12/13 05:33:53;;;;;;;;;;;51.60;2227.20;;;;;;4754410;30;19968;-56
2021/12/13 05:36:24;;;;;;;;;;;51.50;2227.20;;;;;;4754356;30;19910;-56
2021/12/13 05:38:59;;;;;;;;;;;51.50;2227.20;;;;;;4754291;30;19918;-58
2021/12/13 05:41:27;;;;;;;;;;;51.50;2227.20;;;;;;4753098;30;19917;-56
2021/12/13 05:43:55;;;;;;;;;;;51.50;2227.20;;;;;;4754042;30;19967;-56
2021/12/13 05:46:31;;;;;;;;;;;51.40;2227.20;;;;;;4754253;30;20280;-58
2021/12/13 05:49:00;;;;;;;;;;;51.40;2227.20;;;;;;4754201;30;20271;-56
2021/12/13 05:51:32;;;;;;;;;;;51.50;2227.20;;;;;;4754162;30;19911;-57
2021/12/13 05:54:07;;;;;;;;;;;51.50;2227.20;;;;;;4737919;30;20348;-57
2021/12/13 05:56:35;;;;;;;;;;;51.50;2227.20;;;;;;4754160;30;19917;-56
2021/12/13 05:59:09;;;;;;;;;;;51.60;2227.20;;;;;;4753976;30;19924;-56
2021/12/13 06:01:43;;;;;;;;;;;51.60;2227.20;;;;;;4753710;30;20361;-57
2021/12/13 06:04:17;;;;;;;;;;;51.50;2227.20;;;;;;4753657;30;20356;-56
2021/12/13 06:06:47;;;;;;;;;;;51.50;2227.20;;;;;;4753946;30;19910;-56
2021/12/13 06:09:33;;;;;;;;;;;51.50;2227.20;;;;;;4753971;30;19910;-56
2021/12/13 06:12:05;;;;;;;;;;;51.50;2227.20;;;;;;4753378;30;20443;-56
2021/12/13 06:14:30;;;;;;;;;;;51.60;2227.20;;;;;;4753825;30;19910;-56
2021/12/13 06:17:06;;;;;;;;;;;51.50;2227.20;;;;;;4753492;30;20279;-56
2021/12/13 06:20:01;;;;;;;;;;;51.50;2227.20;;;;;;4753402;30;20288;-56
2021/12/13 06:22:28;;;;;;;;;;;51.60;2227.20;;;;;;4745900;30;19910;-56
2021/12/13 06:24:59;;;;;;;;;;;51.60;2227.20;;;;;;4753692;30;20380;-56
2021/12/13 06:27:26;;;;;;;;;;;51.60;2227.20;;;;;;4753642;30;19937;-57
2021/12/13 06:29:59;;;;;;;;;;;51.60;2227.20;;;;;;4753151;30;20356;-56
2021/12/13 06:32:28;;;;;;;;;;;51.60;2227.20;;;;;;4753448;30;19914;-56
2021/12/13 06:34:54;;;;;;;;;;;51.60;2227.20;;;;;;4753541;30;20395;-56
2021/12/13 06:37:24;;;;;;;;;;;51.60;2227.20;;;;;;4753169;30;20349;-58
2021/12/13 06:39:50;;;;;;;;;;;51.50;2227.20;;;;;;4753380;30;19925;-58
2021/12/13 06:42:16;;;;;;;;;;;51.60;2227.20;;;;;;4753436;30;20360;-56
2021/12/13 06:44:45;;;;;;;;;;;51.60;2227.20;;;;;;4753136;30;19927;-56
2021/12/13 06:47:11;;;;;;;;;;;51.60;2227.20;;;;;;4753807;30;19910;-56
2021/12/13 06:49:39;;;;;;;;;;;51.50;2227.20;;;;;;4753452;30;19914;-56
2021/12/13 06:52:04;;;;;;;;;;;51.50;2227.20;;;;;;4752912;30;19914;-56
2021/12/13 06:54:35;;;;;;;;;;;51.50;2227.20;;;;;;4752827;30;19997;-56
2021/12/13 06:57:24;;;;;;;;;;;51.50;2227.20;;;;;;4753345;30;19910;-56
2021/12/13 06:59:52;;;;;;;;;;;51.50;2227.20;;;;;;4747801;30;19918;-56
2021/12/13 07:02:26;;;;;;;;;;;51.50;2227.20;;;;;;4753037;30;20297;-55
2021/12/13 07:04:51;;;;;;;;;;;51.50;2227.20;;;;;;4753003;30;20009;-56
2021/12/13 07:07:19;;;;;;;;;;;51.50;2227.20;;;;;;4753183;30;19996;-56
2021/12/13 07:09:53;;;;;;;;;;;51.50;2227.20;;;;;;4753206;30;20409;-56
2021/12/13 07:12:19;;;;;;;;;;;51.60;2227.20;;;;;;4753079;30;19917;-56
2021/12/13 07:14:46;;;;;;;;;;;51.50;2227.20;;;;;;4752851;30;20395;-56
2021/12/13 07:17:25;;;;;;;;;;;51.50;2227.20;;;;;;4752932;30;19911;-56
2021/12/13 07:19:52;;;;;;;;;;;51.50;2227.20;;;;;;4752772;30;20020;-56
2021/12/13 07:22:25;;;;;;;;;;;51.60;2227.20;;;;;;4752816;30;19914;-56
2021/12/13 07:24:53;;;;;;;;;;;51.60;2227.20;;;;;;4752850;30;19910;-56
2021/12/13 07:27:21;;;;;;;;;;;51.70;2227.20;;;;;;4753077;30;20450;-56
2021/12/13 07:29:58;;;;;;;;;;;51.70;2227.20;;;;;;4752697;30;19922;-56
2021/12/13 07:32:25;;;;;;;;;;;51.70;2227.20;;;;;;4752811;30;19960;-58
2021/12/13 07:35:09;;;;;;;;;;;51.70;2227.20;;;;;;4752670;30;19910;-56
2021/12/13 07:37:55;;;;;;;;;;;51.80;2227.20;;;;;;4752764;30;19953;-56
2021/12/13 07:40:39;;;;;;;;;;;51.80;2227.20;;;;;;4752231;30;20379;-56
2021/12/13 07:43:11;;;;;;;;;;;51.80;2227.20;;;;;;4753248;30;19914;-57
2021/12/13 07:45:55;;;;;;;;;;;51.80;2227.20;;;;;;4752630;30;20276;-56
2021/12/13 07:48:26;;;;;;;;;;;51.90;2227.20;;;;;;4752656;30;19983;-56
2021/12/13 07:51:00;;;;;;;;;;;51.90;2227.20;;;;;;4752982;30;20348;-56
2021/12/13 07:53:28;;;;;;;;;;;51.90;2227.20;;;;;;4752627;30;20047;-57
2021/12/13 07:55:54;;;;;;;;;;;52.00;2227.20;;;;;;4752543;30;19910;-56
2021/12/13 07:58:46;;;;;;;;;;;52.10;2227.20;;;;;;4752599;30;19917;-56
2021/12/13 08:01:38;;;;;;;;;;;52.10;2227.20;;;;;;4758827;30;20292;-56
2021/12/13 08:04:09;;;;;;;;;;;76.80;2227.20;;;;;;4756267;30;19909;-56
2021/12/13 08:06:43;;;;;;;;;;;76.80;2227.20;;;;;;4773208;30;20331;-56
2021/12/13 08:09:16;;;;;;;;;;;76.80;2227.20;;;;;;4773382;30;19937;-56
2021/12/13 08:11:49;;;;;;;;;;;76.80;2227.20;;;;;;4773250;30;19909;-56
2021/12/13 08:14:23;;;;;;;;;;;76.80;2227.20;;;;;;4773372;30;19934;-56
2021/12/13 08:16:49;;;;;;;;;;;76.90;2227.20;;;;;;4773323;30;19960;-56
2021/12/13 08:19:17;;;;;;;;;;;77.00;2227.20;;;;;;4773385;30;19973;-57
2021/12/13 08:21:45;;;;;;;;;;;77.00;2227.20;;;;;;4773402;30;19910;-59
2021/12/13 08:24:26;;;;;;;;;;;76.90;2227.20;;;;;;4773040;30;20391;-57
2021/12/13 08:26:58;;;;;;;;;;;76.90;2227.20;;;;;;4773183;30;19921;-58
2021/12/13 08:29:31;;;;;;;;;;;76.80;2227.20;;;;;;4772873;30;19932;-56
2021/12/13 08:31:59;;;;;;;;;;;76.90;2227.20;;;;;;4773239;30;20260;-56
2021/12/13 08:34:29;;;;;;;;;;;76.90;2227.20;;;;;;4759502;30;19976;-56
2021/12/13 08:36:54;;;;;;;;;;;77.00;2227.20;;;;;;4755086;30;19949;-56
2021/12/13 08:39:22;;;;;;;;;;;77.00;2227.20;;;;;;4755023;30;19961;-56
2021/12/13 08:41:53;;;;;;;;;;;77.00;2227.20;;;;;;4755031;30;20009;-57
2021/12/13 08:44:26;;;;;;;;;;;77.00;2227.20;;;;;;4754999;30;19914;-56
2021/12/13 08:46:52;;;;;;;;;;;77.10;2227.20;;;;;;4755526;30;19910;-56
2021/12/13 08:49:31;;;;;;;;;;;77.10;2227.20;;;;;;4754859;30;20276;-56
2021/12/13 08:51:57;;;;;;;;;;;77.10;2227.20;;;;;;4755125;30;20013;-56
2021/12/13 08:54:33;;;;;;;;;;;77.10;2227.20;;;;;;4754846;30;19942;-58
2021/12/13 08:56:59;;;;;;;;;;;77.10;2227.20;;;;;;4754777;30;19960;-56
2021/12/13 08:59:28;;;;;;;;;;;77.20;2227.20;;;;;;4754715;30;19926;-55
2021/12/13 09:02:11;;;;;;;;;;;77.10;2227.20;;;;;;4754965;30;20356;-58
2021/12/13 09:04:39;;;;;;;;;;;77.20;2227.20;;;;;;4754650;30;19957;-56
2021/12/13 09:07:06;;;;;;;;;;;77.20;2227.20;;;;;;4754646;30;20359;-56
2021/12/13 09:09:33;;;;;;;;;;;77.20;2227.20;;;;;;4754824;30;19914;-55
2021/12/13 09:12:01;;;;;;;;;;;77.30;2227.20;;;;;;4754779;30;20288;-56
2021/12/13 09:14:36;;;;;;;;;;;77.20;2227.20;;;;;;4754784;30;19957;-56
2021/12/13 09:17:10;;;;;;;;;;;77.30;2227.20;;;;;;4754423;30;19917;-56
2021/12/13 09:19:41;;;;;;;;;;;77.30;2227.20;;;;;;4754324;30;19941;-56
2021/12/13 09:22:10;;;;;;;;;;;77.30;2227.20;;;;;;4754297;30;19910;-56
2021/12/13 09:24:36;;;;;;;;;;;77.40;2227.20;;;;;;4753985;30;19910;-56
2021/12/13 09:27:08;;;;;;;;;;;77.40;2227.20;;;;;;4754209;30;19918;-57
2021/12/13 09:29:45;;;;;;;;;;;77.40;2227.20;;;;;;4754045;30;19972;-56
2021/12/13 09:32:12;;;;;;;;;;;77.50;2227.20;;;;;;4754184;30;20321;-57
2021/12/13 09:34:37;;;;;;;;;;;77.60;2227.20;;;;;;4754388;30;19920;-60
2021/12/13 09:37:05;;;;;;;;;;;77.60;2227.20;;;;;;4754303;30;20407;-56
2021/12/13 09:39:30;;;;;;;;;;;77.60;2227.20;;;;;;4753988;30;19922;-56
2021/12/13 09:42:01;;;;;;;;;;;77.60;2227.20;;;;;;4754028;30;19996;-56
2021/12/13 09:44:38;;;;;;;;;;;77.70;2227.20;;;;;;4754296;30;19917;-57
2021/12/13 09:47:09;;;;;;;;;;;102.40;2227.20;;;;;;4754278;30;20051;-58
2021/12/13 09:49:36;;;;;;;;;;;102.50;2227.20;;;;;;4753996;30;20442;-58
2021/12/13 09:52:07;;;;;;;;;;;102.70;2227.20;;;;;;4753857;30;19910;-58
2021/12/13 09:54:37;;;;;;;;;;;102.80;2227.20;;;;;;4753734;30;20335;-59
2021/12/13 09:57:06;;;;;;;;;;;102.90;2227.20;;;;;;4754103;30;20276;-59
2021/12/13 09:59:38;;;;;;;;;;;103.00;2227.20;;;;;;4753943;30;19918;-59
2021/12/13 10:02:06;;;;;;;;;;;103.10;2227.20;;;;;;4754072;30;20059;-59
2021/12/13 10:04:32;;;;;;;;;;;103.20;2227.20;;;;;;4753693;30;20360;-59
2021/12/13 10:07:00;;;;;;;;;;;103.20;2227.20;;;;;;4753841;30;19917;-59
2021/12/13 10:09:49;;;;;;;;;;;103.30;2227.20;;;;;;4753583;30;20013;-59
2021/12/13 10:12:20;;;;;;;;;;;103.30;2227.20;;;;;;4748429;30;19913;-59
2021/12/13 10:14:56;;;;;;;;;;;103.30;2227.20;;;;;;4753449;30;19960;-59
2021/12/13 10:17:24;;;;;;;;;;;103.20;2227.20;;;;;;4753464;30;19910;-59
2021/12/13 10:19:52;;;;;;;;;;;103.30;2227.20;;;;;;4753506;30;19957;-59
2021/12/13 10:22:21;;;;;;;;;;;103.20;2227.20;;;;;;4753398;30;19916;-59
2021/12/13 10:24:55;;;;;;;;;;;103.30;2227.20;;;;;;4753492;30;19917;-59
2021/12/13 10:27:22;;;;;;;;;;;103.30;2227.20;;;;;;4752745;30;19910;-59
2021/12/13 10:29:49;;;;;;;;;;;128.10;2252.80;;;;;;4753092;30;19965;-61
2021/12/13 10:32:23;;;;;;;;;;;128.10;2252.80;;;;;;4753222;30;19914;-59
2021/12/13 10:34:50;;;;;;;;;;;128.10;2252.80;;;;;;4753310;30;19917;-60
2021/12/13 10:37:27;;;;;;;;;;;128.10;2252.80;;;;;;4753423;30;19909;-59
2021/12/13 10:39:57;;;;;;;;;;;128.00;2252.80;;;;;;4753179;30;20407;-59
2021/12/13 10:42:26;;;;;;;;;;;103.30;2227.20;;;;;;4753098;30;19917;-59
2021/12/13 10:44:51;;;;;;;;;;;103.20;2227.20;;;;;;4753189;30;19911;-58
2021/12/13 10:47:25;;;;;;;;;;;103.00;2227.20;;;;;;4753132;30;20391;-57
2021/12/13 10:49:52;;;;;;;;;;;103.00;2227.20;;;;;;4753559;30;19933;-60
2021/12/13 10:52:21;;;;;;;;;;;102.90;2227.20;;;;;;4753137;30;19953;-60
2021/12/13 10:54:51;;;;;;;;;;;102.80;2227.20;;;;;;4753209;30;19910;-60
2021/12/13 10:57:22;;;;;;;;;;;102.80;2227.20;;;;;;4753017;30;20423;-60
2021/12/13 10:59:49;;;;;;;;;;;102.90;2227.20;;;;;;4752704;30;19918;-60
2021/12/13 11:02:17;;;;;;;;;;;102.90;2227.20;;;;;;4753348;30;19992;-60
2021/12/13 11:04:47;;;;;;;;;;;102.90;2227.20;;;;;;4752995;30;19910;-60
2021/12/13 11:07:13;;;;;;;;;;;102.80;2227.20;;;;;;4753028;30;19936;-59
2021/12/13 11:09:41;;;;;;;;;;;102.70;2227.20;;;;;;4752975;30;20001;-60
2021/12/13 11:12:13;;;;;;;;;;;102.70;2227.20;;;;;;4752934;30;19918;-60
2021/12/13 11:14:41;;;;;;;;;;;102.70;2227.20;;;;;;4752794;30;19971;-60
2021/12/13 11:17:13;;;;;;;;;;;102.70;2227.20;;;;;;4752908;30;19965;-60
2021/12/13 11:19:41;;;;;;;;;;;102.90;2227.20;;;;;;4752827;30;19918;-60
2021/12/13 11:22:09;;;;;;;;;;;102.90;2227.20;;;;;;4752695;30;20379;-60
2021/12/13 11:24:37;;;;;;;;;;;102.90;2227.20;;;;;;4752832;30;19921;-60
2021/12/13 11:27:08;;;;;;;;;;;103.30;2227.20;;;;;;4753109;30;19914;-60
2021/12/13 11:29:35;;;;;;;;;;;103.20;2227.20;;;;;;4752679;30;19929;-59
2021/12/13 11:32:19;;;;;;;;;;;103.10;2227.20;;;;;;4752778;30;19921;-60
2021/12/13 11:34:47;;;;;;;;;;;103.00;2227.20;;;;;;4752781;30;19914;-60
2021/12/13 11:37:26;;;;;;;;;;;103.00;2227.20;;;;;;4752773;30;19910;-59
2021/12/13 11:39:51;;;;;;;;;;;103.10;2227.20;;;;;;4755240;30;19922;-58
2021/12/13 11:42:33;;;;;;;;;;;103.10;2227.20;;;;;;4755967;30;19910;-60
2021/12/13 11:45:14;;;;;;;;;;;103.10;2227.20;;;;;;4756195;30;19910;-60
2021/12/13 11:47:40;;;;;;;;;;;103.00;2227.20;;;;;;4772579;30;19917;-60
2021/12/13 11:50:24;;;;;;;;;;;102.90;2227.20;;;;;;4773848;30;19909;-60
2021/12/13 11:53:08;;;;;;;;;;;103.20;2227.20;;;;;;4773808;30;19910;-59
2021/12/13 11:55:49;;;;;;;;;;;128.20;2252.80;;;;;;4773560;30;20357;-60
2021/12/13 11:58:23;;;;;;;;;;;128.40;2252.80;;;;;;4773387;30;20012;-60
2021/12/13 12:01:06;;;;;;;;;;;128.40;2252.80;;;;;;4773550;30;19913;-60
2021/12/13 12:03:50;;;;;;;;;;;128.30;2252.80;;;;;;4773414;30;20273;-60
2021/12/13 12:06:19;;;;;;;;;;;128.60;2252.80;;;;;;4771880;30;19909;-60
2021/12/13 12:08:57;;;;;;;;;;;128.80;2252.80;;;;;;4771441;30;19914;-60
2021/12/13 12:11:41;;;;;;;;;;;153.80;2252.80;;;;;;4771585;30;19910;-60
2021/12/13 12:14:10;;;;;;;;;;;154.00;2252.80;;;;;;4772128;30;19910;-59
2021/12/13 12:16:41;;;;;;;;;;;154.30;2252.80;;;;;;4773491;30;19910;-59
2021/12/13 12:19:08;;;;;;;;;;;180.00;2201.60;;;;;;4773454;30;19974;-60
2021/12/13 12:21:33;;;;;;;;;;;205.40;2073.60;;;;;;4773240;30;20455;-60
2021/12/13 12:24:05;;;;;;;;;;;281.80;1689.60;;;;;;4773359;30;20008;-59
2021/12/13 12:26:31;;;;;;;;;;;282.30;1664.00;;;;;;4773311;30;19932;-59
2021/12/13 12:28:58;;;;;;;;;;;256.70;1766.40;;;;;;4772764;30;19921;-59
2021/12/13 12:31:31;;;;;;;;;;;307.40;1638.40;;;;;;4773268;30;20271;-60
2021/12/13 12:33:58;;;;;;;;;;;308.00;1510.40;;;;;;4773049;30;19910;-59
2021/12/13 12:36:37;;;;;;;;;;;307.30;1638.40;;;;;;4756879;30;19996;-60
2021/12/13 12:39:05;;;;;;;;;;;333.00;1587.20;;;;;;4773439;30;20424;-60
2021/12/13 12:41:45;;;;;;;;;;;308.10;1561.60;;;;;;4772902;30;19910;-59
2021/12/13 12:44:27;;;;;;;;;;;308.00;1561.60;;;;;;4773365;30;19910;-59
2021/12/13 12:46:53;;;;;;;;;;;358.60;1408.00;;;;;;4773009;30;20320;-60
2021/12/13 12:49:24;;;;;;;;;;;333.70;1459.20;;;;;;4772954;30;20261;-59
2021/12/13 12:51:52;;;;;;;;;;;333.60;1433.60;;;;;;4772426;30;19917;-60
2021/12/13 12:54:19;;;;;;;;;;;333.20;1459.20;;;;;;4772873;30;19933;-60
2021/12/13 12:56:52;;;;;;;;;;;307.80;1484.80;;;;;;4772892;30;19918;-59
2021/12/13 12:59:22;;;;;;;;;;;282.00;1561.60;;;;;;4772767;30;20345;-60
2021/12/13 13:01:58;;;;;;;;;;;281.90;1612.80;;;;;;4772502;30;20368;-59
2021/12/13 13:04:27;;;;;;;;;;;282.20;1612.80;;;;;;4772853;30;19909;-60
2021/12/13 13:06:55;;;;;;;;;;;333.10;1510.40;;;;;;4772427;30;20000;-60
2021/12/13 13:09:22;;;;;;;;;;;435.60;1305.60;;;;;;4772675;30;19949;-60
2021/12/13 13:11:48;;;;;;;;;;;;;;;;;;4772378;30;19909;-60
2021/12/13 13:14:22;;;;;;;;;;;563.30;947.20;;;;;;4772317;30;20389;-60
2021/12/13 13:16:55;;;;;;;;;;;665.60;793.60;;;;;;4772203;30;19917;-60
2021/12/13 13:19:35;;;;;;;;;;;717.40;768.00;;;;;;4772478;30;19917;-60
2021/12/13 13:22:06;;;;;;;;;;;691.40;742.40;;;;;;4772336;30;19949;-60
2021/12/13 13:24:37;;;;;;;;;;;666.20;768.00;;;;;;4772135;30;19934;-60
2021/12/13 13:27:03;;;;;;;;;;;665.70;768.00;;;;;;4756099;30;19910;-60
2021/12/13 13:29:29;;;;;;;;;;;665.70;716.80;;;;;;4772094;30;20000;-60
2021/12/13 13:31:55;;;;;;;;;;;;;;;;;;4772204;30;19924;-60
2021/12/13 13:34:21;;;;;;;;;;;384.60;1152.00;;;;;;4771906;30;20005;-59
2021/12/13 13:36:47;;;;;;;;;;;;;;;;;;4771981;30;19992;-60
2021/12/13 13:39:12;;;;;;;;;;;333.50;1433.60;;;;;;4772383;30;19914;-60
2021/12/13 13:41:38;;;;;;;;;;;;;;;;;;4771804;30;20382;-60
2021/12/13 13:44:09;;;;;;;;;;;460.90;1100.80;;;;;;4772125;30;19916;-60
2021/12/13 13:46:35;;;;;;;;;;;;;;;;;;4771732;30;20414;-60
2021/12/13 13:49:02;;;;;;;;;;;;;;;;;;4772645;30;19960;-60
2021/12/13 13:51:29;;;;;;;;;;;589.30;793.60;;;;;;4771956;30;19914;-60
2021/12/13 13:53:55;;;;;;;;;;;614.90;793.60;;;;;;4771694;30;19996;-58
2021/12/13 13:56:27;;;;;;;;;;;615.10;768.00;;;;;;4771608;30;19910;-59
2021/12/13 13:58:55;;;;;;;;;;;614.70;768.00;;;;;;4771482;30;19918;-59
2021/12/13 14:01:39;;;;;;;;;;;640.00;716.80;;;;;;4771549;30;19966;-62
2021/12/13 14:04:14;;;;;;;;;;;588.80;819.20;;;;;;4770890;30;19917;-63
2021/12/13 14:06:42;;;;;;;;;;;461.20;1024.00;;;;;;4771435;30;20392;-61
2021/12/13 14:09:08;;;;;;;;;;;;;;;;;;4771338;30;19910;-61
2021/12/13 14:11:34;;;;;;;;;;;;;;;;;;4771653;30;19916;-61
2021/12/13 14:14:00;;;;;;;;;;;384.40;1203.20;;;;;;4771405;30;19910;-69
2021/12/13 14:16:28;;;;;;;;;;;358.60;1228.80;;;;;;4755243;30;19910;-61
2021/12/13 14:18:54;;;;;;;;;;;282.10;1433.60;;;;;;4771123;30;20371;-61